createdAt,value
2022-08-14T00:00:48.451Z,25.80
2022-08-14T00:03:29.514Z,25.50
2022-08-14T00:06:02.930Z,25.80
2022-08-14T00:08:53.983Z,26.00
2022-08-14T00:11:24.987Z,26.00
2022-08-14T00:13:56.054Z,26.10
2022-08-14T00:16:41.198Z,25.70
2022-08-14T00:19:21.180Z,26.20
2022-08-14T00:21:52.739Z,25.90
2022-08-14T00:24:29.087Z,25.90
2022-08-14T00:27:02.831Z,25.60
2022-08-14T00:29:40.582Z,25.80
2022-08-14T00:32:52.938Z,25.40
2022-08-14T00:35:07.908Z,25.30
2022-08-14T00:37:46.430Z,25.40
2022-08-14T00:40:35.366Z,25.20
2022-08-14T00:43:07.924Z,25.70
2022-08-14T00:45:39.475Z,24.90
2022-08-14T00:48:12.574Z,25.20
2022-08-14T00:51:06.551Z,25.10
2022-08-14T00:53:40.006Z,24.90
2022-08-14T00:56:15.636Z,25.30
2022-08-14T00:58:48.607Z,25.00
2022-08-14T01:01:19.715Z,24.90
2022-08-14T01:03:53.474Z,25.20
2022-08-14T01:06:30.307Z,25.30
2022-08-14T01:09:05.426Z,25.20
2022-08-14T01:11:39.165Z,25.20
2022-08-14T01:14:28.289Z,24.80
2022-08-14T01:16:59.978Z,24.80
2022-08-14T01:19:49.529Z,24.70
2022-08-14T01:22:20.816Z,24.70
2022-08-14T01:24:57.955Z,24.70
2022-08-14T01:27:29.856Z,24.90
2022-08-14T01:30:03.936Z,24.70
2022-08-14T01:32:42.562Z,24.80
2022-08-14T01:35:20.115Z,24.80
2022-08-14T01:38:05.783Z,24.80
2022-08-14T01:40:41.967Z,24.80
2022-08-14T01:43:18.590Z,24.60
2022-08-14T01:46:06.418Z,24.70
2022-08-14T01:48:40.437Z,24.70
2022-08-14T01:51:19.311Z,24.60
2022-08-14T01:53:56.337Z,24.40
2022-08-14T01:56:39.865Z,24.10
2022-08-14T01:59:37.853Z,24.10
2022-08-14T02:02:19.948Z,24.10
2022-08-14T02:04:55.337Z,24.30
2022-08-14T02:07:44.669Z,23.90
2022-08-14T02:10:26.329Z,23.70
2022-08-14T02:12:59.476Z,23.80
2022-08-14T02:15:30.698Z,23.80
2022-08-14T02:18:04.423Z,23.70
2022-08-14T02:20:36.061Z,23.70
2022-08-14T02:23:08.296Z,23.70
2022-08-14T02:25:39.631Z,23.60
2022-08-14T02:28:24.310Z,23.90
2022-08-14T02:31:01.784Z,23.90
2022-08-14T02:33:33.748Z,24.00
2022-08-14T02:37:06.154Z,23.70
2022-08-14T02:39:07.718Z,23.40
2022-08-14T02:41:45.050Z,23.80
2022-08-14T02:44:29.489Z,23.80
2022-08-14T02:47:01.837Z,23.80
2022-08-14T02:49:33.965Z,23.70
2022-08-14T02:52:16.053Z,23.60
2022-08-14T02:54:58.289Z,23.20
2022-08-14T02:57:39.251Z,23.20
2022-08-14T03:00:18.750Z,23.40
2022-08-14T03:02:58.854Z,23.60
2022-08-14T03:05:36.193Z,23.40
2022-08-14T03:08:16.124Z,23.40
2022-08-14T03:10:50.111Z,23.00
2022-08-14T03:13:21.997Z,23.40
2022-08-14T03:15:57.849Z,23.30
2022-08-14T03:18:32.093Z,23.00
2022-08-14T03:21:07.771Z,22.80
2022-08-14T03:23:43.904Z,22.60
2022-08-14T03:26:29.910Z,22.90
2022-08-14T03:29:02.396Z,22.90
2022-08-14T03:31:33.442Z,22.90
2022-08-14T03:34:04.764Z,23.00
2022-08-14T03:37:29.703Z,22.90
2022-08-14T03:39:34.702Z,23.20
2022-08-14T03:42:06.773Z,23.10
2022-08-14T03:45:19.530Z,23.10
2022-08-14T03:47:46.641Z,23.00
2022-08-14T03:50:32.561Z,23.20
2022-08-14T03:53:04.051Z,22.60
2022-08-14T03:55:35.035Z,22.70
2022-08-14T03:58:10.219Z,22.80
2022-08-14T04:00:46.294Z,23.00
2022-08-14T04:03:24.214Z,23.00
2022-08-14T04:05:55.566Z,23.00
2022-08-14T04:08:31.118Z,22.90
2022-08-14T04:11:08.034Z,23.10
2022-08-14T04:13:43.416Z,23.30
2022-08-14T04:16:21.182Z,23.30
2022-08-14T04:18:57.492Z,23.40
2022-08-14T04:21:29.554Z,23.10
2022-08-14T04:24:12.783Z,23.00
2022-08-14T04:26:46.971Z,23.20
2022-08-14T04:29:18.588Z,23.10
2022-08-14T04:33:00.756Z,23.10
2022-08-14T04:34:42.285Z,23.10
2022-08-14T04:37:43.160Z,23.10
2022-08-14T04:40:35.418Z,23.20
2022-08-14T04:43:38.839Z,23.50
2022-08-14T04:46:56.518Z,23.70
2022-08-14T04:49:09.062Z,23.70
2022-08-14T04:51:55.462Z,23.70
2022-08-14T04:54:28.359Z,23.70
2022-08-14T04:56:59.277Z,23.80
2022-08-14T04:59:30.183Z,23.80
2022-08-14T05:02:01.079Z,24.00
2022-08-14T05:04:33.506Z,24.10
2022-08-14T05:07:10.714Z,23.90
2022-08-14T05:09:43.934Z,23.80
2022-08-14T05:13:11.003Z,23.90
2022-08-14T05:15:10.395Z,23.80
2022-08-14T05:17:54.055Z,23.90
2022-08-14T05:21:57.919Z,24.30
2022-08-14T05:23:29.549Z,24.40
2022-08-14T05:26:02.864Z,24.70
2022-08-14T05:28:35.555Z,25.00
2022-08-14T05:31:08.083Z,24.90
2022-08-14T05:33:40.913Z,24.10
2022-08-14T05:36:16.647Z,24.70
2022-08-14T05:38:48.172Z,24.80
2022-08-14T05:41:19.657Z,24.80
2022-08-14T05:43:53.036Z,24.90
2022-08-14T05:46:24.346Z,24.20
2022-08-14T05:48:57.999Z,24.70
2022-08-14T05:51:28.891Z,24.70
2022-08-14T05:54:13.864Z,25.00
2022-08-14T05:56:52.574Z,25.00
2022-08-14T05:59:36.610Z,25.20
2022-08-14T06:02:10.733Z,24.90
2022-08-14T06:04:48.266Z,24.60
2022-08-14T06:07:20.312Z,24.40
2022-08-14T06:09:52.429Z,24.70
2022-08-14T06:12:31.424Z,25.10
2022-08-14T06:15:14.412Z,25.80
2022-08-14T06:17:58.914Z,25.10
2022-08-14T06:20:31.457Z,25.40
2022-08-14T06:23:06.046Z,25.40
2022-08-14T06:25:37.286Z,25.50
2022-08-14T06:28:27.218Z,25.40
2022-08-14T06:30:58.919Z,25.20
2022-08-14T06:35:04.666Z,25.70
2022-08-14T06:36:20.769Z,25.30
2022-08-14T06:38:53.216Z,25.00
2022-08-14T06:41:44.037Z,24.80
2022-08-14T06:44:16.558Z,25.20
2022-08-14T06:46:49.393Z,25.80
2022-08-14T06:49:20.483Z,25.70
2022-08-14T06:51:51.358Z,25.90
2022-08-14T06:54:31.514Z,25.50
2022-08-14T06:57:02.844Z,26.30
2022-08-14T06:59:34.496Z,26.40
2022-08-14T07:02:24.493Z,26.00
2022-08-14T07:05:22.884Z,26.30
2022-08-14T07:07:54.408Z,26.40
2022-08-14T07:10:25.571Z,27.00
2022-08-14T07:13:03.750Z,27.20
2022-08-14T07:15:42.140Z,27.00
2022-08-14T07:18:14.077Z,27.50
2022-08-14T07:20:44.957Z,27.40
2022-08-14T07:23:21.059Z,26.60
2022-08-14T07:25:58.211Z,26.90
2022-08-14T07:28:43.484Z,27.60
2022-08-14T07:31:16.419Z,27.80
2022-08-14T07:33:50.642Z,27.80
2022-08-14T07:36:26.542Z,27.80
2022-08-14T07:39:02.962Z,28.10
2022-08-14T07:41:44.686Z,28.10
2022-08-14T07:44:28.769Z,28.20
2022-08-14T07:47:05.268Z,28.00
2022-08-14T07:49:36.375Z,28.30
2022-08-14T07:52:08.134Z,28.50
2022-08-14T07:54:41.434Z,28.40
2022-08-14T07:57:22.414Z,28.60
2022-08-14T07:59:56.040Z,28.70
2022-08-14T08:02:32.620Z,28.60
2022-08-14T08:05:04.155Z,28.90
2022-08-14T08:07:39.150Z,29.00
2022-08-14T08:10:57.318Z,29.20
2022-08-14T08:13:24.640Z,29.20
2022-08-14T08:16:00.357Z,29.30
2022-08-14T08:18:32.602Z,29.60
2022-08-14T08:21:08.457Z,29.70
2022-08-14T08:23:51.019Z,29.70
2022-08-14T08:26:30.890Z,30.00
2022-08-14T08:29:01.817Z,30.20
2022-08-14T08:31:35.200Z,30.30
2022-08-14T08:34:07.359Z,30.20
2022-08-14T08:36:46.679Z,29.80
2022-08-14T08:39:22.353Z,30.60
2022-08-14T08:41:54.101Z,30.80
2022-08-14T08:44:31.815Z,30.90
2022-08-14T08:47:08.141Z,31.00
2022-08-14T08:49:58.925Z,31.20
2022-08-14T08:52:42.485Z,31.50
2022-08-14T08:55:29.653Z,31.00
2022-08-14T08:58:12.731Z,31.50
2022-08-14T09:01:00.109Z,31.70
2022-08-14T09:03:32.266Z,31.30
2022-08-14T09:06:32.934Z,31.60
2022-08-14T09:08:57.086Z,31.90
2022-08-14T09:11:28.019Z,32.00
2022-08-14T09:14:00.505Z,32.10
2022-08-14T09:16:31.486Z,32.30
2022-08-14T09:19:04.327Z,32.30
2022-08-14T09:21:35.354Z,32.50
2022-08-14T09:24:29.501Z,32.60
2022-08-14T09:26:59.795Z,32.20
2022-08-14T09:29:31.813Z,32.30
2022-08-14T09:32:57.723Z,32.30
2022-08-14T09:35:19.475Z,32.40
2022-08-14T09:38:15.526Z,32.30
2022-08-14T09:41:24.019Z,32.50
2022-08-14T09:44:45.708Z,32.00
2022-08-14T09:47:17.396Z,32.70
2022-08-14T09:49:53.191Z,33.10
2022-08-14T09:52:33.870Z,33.40
2022-08-14T09:55:18.625Z,33.40
2022-08-14T09:57:53.364Z,33.50
2022-08-14T10:00:49.065Z,33.40
2022-08-14T10:03:53.648Z,33.60
2022-08-14T10:06:28.183Z,33.60
2022-08-14T10:09:02.472Z,33.90
2022-08-14T10:11:37.956Z,33.30
2022-08-14T10:14:35.310Z,33.40
2022-08-14T10:17:08.620Z,33.80
2022-08-14T10:19:48.775Z,33.60
2022-08-14T10:23:12.372Z,34.30
2022-08-14T10:25:22.660Z,34.90
2022-08-14T10:27:59.738Z,34.40
2022-08-14T10:30:38.397Z,34.50
2022-08-14T10:33:09.664Z,34.50
2022-08-14T10:35:48.076Z,34.60
2022-08-14T10:38:34.720Z,34.60
2022-08-14T10:41:17.383Z,34.50
2022-08-14T10:44:21.552Z,34.80
2022-08-14T10:47:40.820Z,34.20
2022-08-14T10:50:00.932Z,34.50
2022-08-14T10:52:35.292Z,34.90
2022-08-14T10:55:16.334Z,35.20
2022-08-14T10:57:59.818Z,35.10
2022-08-14T11:00:35.405Z,35.30
2022-08-14T11:03:11.028Z,35.40
2022-08-14T11:05:55.526Z,35.90
2022-08-14T11:08:32.336Z,35.80
2022-08-14T11:11:05.949Z,35.80
2022-08-14T11:13:43.830Z,36.40
2022-08-14T11:16:16.077Z,36.30
2022-08-14T11:18:51.686Z,37.50
2022-08-14T11:21:30.254Z,38.30
2022-08-14T11:24:54.014Z,37.70
2022-08-14T11:27:02.119Z,38.70
2022-08-14T11:29:36.955Z,39.20
2022-08-14T11:32:11.561Z,38.90
2022-08-14T11:34:43.170Z,39.40
2022-08-14T11:37:20.750Z,39.80
2022-08-14T11:39:58.876Z,38.90
2022-08-14T11:42:57.377Z,39.00
2022-08-14T11:45:34.352Z,39.40
2022-08-14T11:49:03.914Z,39.10
2022-08-14T11:51:26.046Z,39.10
2022-08-14T11:54:03.855Z,39.20
2022-08-14T11:56:40.195Z,38.20
2022-08-14T11:59:18.155Z,38.90
2022-08-14T12:01:49.400Z,39.40
2022-08-14T12:04:31.778Z,39.40
2022-08-14T12:07:07.643Z,38.60
2022-08-14T12:09:43.104Z,38.30
2022-08-14T12:12:35.568Z,39.10
2022-08-14T12:15:08.766Z,38.20
2022-08-14T12:17:53.226Z,38.50
2022-08-14T12:20:37.389Z,39.00
2022-08-14T12:23:25.706Z,39.10
2022-08-14T12:26:32.140Z,39.70
2022-08-14T12:29:09.505Z,40.20
2022-08-14T12:31:47.385Z,39.30
2022-08-14T12:34:24.362Z,38.30
2022-08-14T12:37:05.759Z,38.40
2022-08-14T12:39:39.777Z,39.10
2022-08-14T12:42:11.598Z,39.30
2022-08-14T12:44:59.899Z,39.20
2022-08-14T12:47:35.215Z,39.00
2022-08-14T12:50:07.287Z,38.50
2022-08-14T12:52:56.047Z,38.50
2022-08-14T12:56:17.560Z,39.10
2022-08-14T12:58:51.842Z,38.80
2022-08-14T13:01:27.334Z,38.90
2022-08-14T13:04:15.285Z,38.00
2022-08-14T13:06:51.334Z,38.20
2022-08-14T13:09:36.696Z,39.00
2022-08-14T13:12:34.801Z,39.70
2022-08-14T13:15:08.748Z,40.50
2022-08-14T13:17:51.130Z,40.00
2022-08-14T13:20:26.727Z,39.00
2022-08-14T13:23:02.498Z,38.50
2022-08-14T13:25:37.711Z,38.50
2022-08-14T13:28:10.973Z,38.90
2022-08-14T13:30:45.826Z,38.70
2022-08-14T13:33:21.180Z,39.30
2022-08-14T13:35:52.889Z,39.40
2022-08-14T13:38:25.244Z,40.10
2022-08-14T13:40:58.870Z,40.30
2022-08-14T13:43:36.607Z,39.50
2022-08-14T13:46:08.220Z,40.70
2022-08-14T13:48:44.000Z,40.20
2022-08-14T13:51:17.677Z,40.60
2022-08-14T13:54:08.416Z,40.60
2022-08-14T13:56:42.091Z,40.50
2022-08-14T13:59:20.174Z,41.00
2022-08-14T14:01:52.137Z,41.40
2022-08-14T14:04:25.440Z,40.00
2022-08-14T14:07:04.449Z,40.30
2022-08-14T14:09:50.857Z,41.30
2022-08-14T14:12:37.317Z,41.00
2022-08-14T14:15:13.822Z,39.60
2022-08-14T14:17:47.763Z,40.40
2022-08-14T14:20:34.306Z,39.80
2022-08-14T14:23:11.781Z,39.30
2022-08-14T14:25:51.051Z,39.30
2022-08-14T14:28:31.945Z,39.80
2022-08-14T14:31:06.947Z,40.30
2022-08-14T14:33:49.056Z,40.30
2022-08-14T14:36:30.497Z,39.60
2022-08-14T14:39:05.954Z,40.20
2022-08-14T14:41:44.097Z,40.10
2022-08-14T14:44:16.503Z,40.50
2022-08-14T14:46:50.509Z,40.50
2022-08-14T14:49:42.166Z,39.80
2022-08-14T14:52:23.233Z,40.60
2022-08-14T14:54:58.960Z,41.00
2022-08-14T14:57:35.235Z,40.70
2022-08-14T15:00:18.463Z,40.20
2022-08-14T15:02:57.829Z,40.00
2022-08-14T15:05:31.025Z,39.70
2022-08-14T15:08:06.762Z,39.80
2022-08-14T15:10:40.081Z,40.00
2022-08-14T15:13:11.931Z,40.00
2022-08-14T15:15:46.945Z,40.00
2022-08-14T15:18:36.990Z,40.00
2022-08-14T15:21:09.503Z,40.70
2022-08-14T15:23:44.177Z,39.70
2022-08-14T15:26:23.798Z,39.80
2022-08-14T15:29:06.569Z,39.00
2022-08-14T15:31:38.723Z,39.40
2022-08-14T15:34:45.605Z,39.30
2022-08-14T15:37:13.133Z,39.20
2022-08-14T15:39:57.393Z,39.10
2022-08-14T15:42:30.405Z,39.10
2022-08-14T15:45:02.349Z,39.20
2022-08-14T15:47:35.098Z,39.20
2022-08-14T15:50:13.261Z,38.70
2022-08-14T15:52:45.027Z,39.20
2022-08-14T15:55:19.015Z,39.20
2022-08-14T15:58:03.933Z,39.80
2022-08-14T16:00:55.986Z,39.70
2022-08-14T16:03:36.526Z,39.40
2022-08-14T16:06:15.639Z,39.30
2022-08-14T16:08:57.698Z,39.70
2022-08-14T16:11:33.167Z,39.60
2022-08-14T16:14:06.622Z,39.60
2022-08-14T16:16:50.866Z,39.70
2022-08-14T16:19:31.871Z,39.60
2022-08-14T16:22:59.439Z,39.50
2022-08-14T16:25:03.096Z,39.20
2022-08-14T16:27:41.570Z,39.40
2022-08-14T16:30:25.099Z,39.60
2022-08-14T16:33:02.193Z,39.70
2022-08-14T16:35:42.672Z,39.90
2022-08-14T16:38:46.518Z,39.50
2022-08-14T16:41:29.972Z,39.20
2022-08-14T16:44:13.799Z,39.10
2022-08-14T16:46:57.212Z,38.90
2022-08-14T16:50:03.191Z,38.80
2022-08-14T16:52:44.196Z,38.90
2022-08-14T16:55:17.710Z,38.60
2022-08-14T16:57:54.864Z,38.90
2022-08-14T17:00:43.467Z,39.10
2022-08-14T17:03:16.598Z,39.00
2022-08-14T17:05:49.374Z,38.90
2022-08-14T17:08:41.922Z,38.60
2022-08-14T17:11:14.934Z,38.80
2022-08-14T17:13:58.371Z,38.60
2022-08-14T17:16:37.768Z,38.50
2022-08-14T17:19:15.467Z,38.50
2022-08-14T17:21:51.994Z,38.30
2022-08-14T17:25:03.177Z,38.20
2022-08-14T17:27:22.905Z,38.30
2022-08-14T17:29:57.309Z,38.00
2022-08-14T17:32:55.588Z,37.80
2022-08-14T17:35:57.737Z,37.50
2022-08-14T17:38:38.354Z,37.50
2022-08-14T17:41:23.572Z,37.30
2022-08-14T17:44:12.837Z,37.10
2022-08-14T17:47:04.897Z,36.90
2022-08-14T17:49:46.521Z,36.70
2022-08-14T17:52:34.233Z,36.40
2022-08-14T17:56:01.349Z,36.40
2022-08-14T17:58:21.606Z,36.10
2022-08-14T18:00:57.781Z,35.90
2022-08-14T18:03:50.077Z,36.00
2022-08-14T18:06:37.997Z,36.60
2022-08-14T18:09:24.719Z,35.90
2022-08-14T18:12:03.788Z,35.90
2022-08-14T18:14:48.459Z,35.60
2022-08-14T18:17:24.144Z,35.60
2022-08-14T18:19:58.675Z,35.90
2022-08-14T18:22:39.585Z,35.80
2022-08-14T18:25:22.585Z,35.50
2022-08-14T18:27:57.259Z,35.50
2022-08-14T18:30:32.027Z,35.40
2022-08-14T18:33:22.149Z,35.30
2022-08-14T18:35:59.989Z,35.40
2022-08-14T18:39:00.064Z,35.30
2022-08-14T18:41:36.802Z,34.70
2022-08-14T18:44:10.262Z,35.00
2022-08-14T18:47:15.200Z,35.00
2022-08-14T18:50:26.154Z,35.10
2022-08-14T18:53:07.181Z,34.80
2022-08-14T18:55:53.002Z,35.20
2022-08-14T18:58:33.783Z,35.10
2022-08-14T19:01:06.349Z,34.80
2022-08-14T19:03:37.457Z,34.80
2022-08-14T19:06:10.144Z,34.60
2022-08-14T19:08:47.778Z,34.60
2022-08-14T19:11:40.441Z,34.50
2022-08-14T19:14:16.304Z,34.90
2022-08-14T19:16:48.196Z,34.50
2022-08-14T19:19:24.468Z,34.60
2022-08-14T19:21:57.469Z,34.30
2022-08-14T19:24:44.131Z,34.40
2022-08-14T19:27:24.127Z,34.20
2022-08-14T19:30:19.831Z,34.00
2022-08-14T19:32:56.037Z,33.80
2022-08-14T19:35:49.169Z,33.70
2022-08-14T19:38:57.777Z,33.70
2022-08-14T19:41:34.552Z,33.60
2022-08-14T19:44:10.880Z,33.50
2022-08-14T19:47:00.035Z,33.40
2022-08-14T19:50:08.782Z,33.30
2022-08-14T19:52:39.588Z,33.30
2022-08-14T19:55:19.578Z,33.30
2022-08-14T19:57:58.603Z,33.40
2022-08-14T20:00:30.769Z,33.10
2022-08-14T20:03:14.213Z,33.70
2022-08-14T20:06:05.380Z,33.50
2022-08-14T20:09:05.806Z,33.70
2022-08-14T20:12:02.255Z,33.60
2022-08-14T20:14:29.812Z,33.60
2022-08-14T20:17:06.232Z,33.60
2022-08-14T20:19:41.771Z,33.40
2022-08-14T20:22:36.565Z,33.80
2022-08-14T20:25:23.191Z,33.90
2022-08-14T20:27:59.312Z,33.40
2022-08-14T20:30:34.890Z,33.60
2022-08-14T20:33:10.658Z,33.30
2022-08-14T20:35:49.104Z,33.40
2022-08-14T20:38:33.200Z,33.40
2022-08-14T20:41:10.746Z,33.10
2022-08-14T20:44:06.637Z,33.00
2022-08-14T20:46:39.527Z,33.10
2022-08-14T20:49:18.567Z,33.40
2022-08-14T20:51:58.987Z,33.40
2022-08-14T20:54:34.530Z,33.60
2022-08-14T20:57:09.355Z,33.60
2022-08-14T20:59:48.894Z,33.80
2022-08-14T21:02:29.502Z,33.60
2022-08-14T21:05:16.781Z,33.30
2022-08-14T21:07:51.055Z,33.60
2022-08-14T21:10:36.030Z,33.50
2022-08-14T21:14:09.074Z,33.60
2022-08-14T21:16:33.725Z,33.50
2022-08-14T21:19:02.251Z,33.10
2022-08-14T21:21:41.799Z,32.90
2022-08-14T21:24:38.818Z,32.70
2022-08-14T21:27:22.031Z,32.60
2022-08-14T21:29:56.107Z,32.40
2022-08-14T21:32:47.279Z,32.50
2022-08-14T21:35:22.823Z,32.40
2022-08-14T21:37:55.552Z,32.40
2022-08-14T21:40:40.888Z,32.50
2022-08-14T21:43:19.306Z,32.60
2022-08-14T21:45:56.198Z,32.40
2022-08-14T21:48:32.702Z,32.30
2022-08-14T21:51:55.077Z,32.30
2022-08-14T21:54:04.131Z,32.30
2022-08-14T21:56:41.851Z,32.30
2022-08-14T21:59:32.271Z,32.20
2022-08-14T22:02:06.508Z,32.20
2022-08-14T22:04:41.409Z,32.40
2022-08-14T22:07:16.766Z,32.30
2022-08-14T22:09:55.142Z,32.30
2022-08-14T22:12:45.371Z,32.30
2022-08-14T22:15:21.976Z,32.20
2022-08-14T22:17:54.501Z,31.90
2022-08-14T22:20:31.457Z,32.00
2022-08-14T22:23:08.585Z,32.00
2022-08-14T22:25:43.260Z,31.90
2022-08-14T22:28:27.301Z,32.00
2022-08-14T22:31:10.518Z,31.80
2022-08-14T22:33:42.982Z,31.60
2022-08-14T22:36:42.072Z,31.80
2022-08-14T22:39:40.175Z,31.70
2022-08-14T22:42:22.715Z,31.60
2022-08-14T22:44:56.414Z,31.50
2022-08-14T22:47:40.528Z,31.60
2022-08-14T22:50:32.596Z,31.50
2022-08-14T22:53:05.927Z,31.50
2022-08-14T22:55:37.984Z,32.20
2022-08-14T22:58:09.804Z,32.40
2022-08-14T23:00:41.936Z,32.60
2022-08-14T23:03:17.370Z,32.00
2022-08-14T23:05:52.727Z,32.50
2022-08-14T23:08:58.840Z,32.60
2022-08-14T23:11:16.849Z,32.50
2022-08-14T23:13:48.803Z,32.40
2022-08-14T23:16:24.094Z,32.40
2022-08-14T23:18:55.606Z,32.20
2022-08-14T23:21:28.843Z,31.90
2022-08-14T23:24:00.213Z,32.40
2022-08-14T23:26:48.411Z,32.50
2022-08-14T23:29:21.568Z,32.50
2022-08-14T23:31:53.503Z,32.40
2022-08-14T23:34:26.463Z,32.20
2022-08-14T23:37:03.844Z,32.30
2022-08-14T23:39:35.668Z,32.40
2022-08-14T23:42:11.567Z,32.30
2022-08-14T23:44:45.905Z,32.40
2022-08-14T23:47:26.842Z,32.20
2022-08-14T23:50:03.518Z,31.70
2022-08-14T23:52:57.426Z,31.90
2022-08-14T23:55:34.238Z,31.50
2022-08-14T23:58:05.199Z,31.40
